Time;durP1;ratioP1;P1;durP2;ratioP2;P2;SDS_P1;SDS_P2;PMS_P1;PMS_P2;Temp;Humidity;BMP_temperature;BMP_pressure;BME280_temperature;BME280_humidity;BME280_pressure;Samples;Min_cycle;Max_cycle;Signal;HPM_P1;HPM_P2
2020/12/20 00:00:11;;;;;;;19.95;10.15;;;5.10;99.90;;;;;;5064498;28;20052;-87
2020/12/20 00:02:36;;;;;;;18.52;10.45;;;5.10;99.90;;;;;;5050046;28;20033;-87
2020/12/20 00:05:03;;;;;;;17.88;9.65;;;5.10;99.90;;;;;;5049241;28;20033;-87
2020/12/20 00:07:29;;;;;;;20.90;11.13;;;5.10;99.90;;;;;;5065083;28;20020;-87
2020/12/20 00:09:54;;;;;;;19.38;10.57;;;5.10;99.90;;;;;;5067633;28;20025;-88
2020/12/20 00:12:20;;;;;;;19.95;10.52;;;5.20;99.90;;;;;;5049766;28;20021;-87
2020/12/20 00:14:45;;;;;;;19.52;10.52;;;5.20;99.90;;;;;;5057315;28;20432;-88
2020/12/20 00:17:11;;;;;;;17.17;9.90;;;5.20;99.90;;;;;;5064369;28;20028;-88
2020/12/20 00:19:38;;;;;;;18.65;10.57;;;5.20;99.90;;;;;;5054342;28;20083;-87
2020/12/20 00:22:09;;;;;;;19.38;10.25;;;5.10;99.90;;;;;;5059052;28;20051;-87
2020/12/20 00:24:35;;;;;;;19.80;9.32;;;5.10;99.90;;;;;;5069174;28;20063;-88
2020/12/20 00:27:03;;;;;;;18.00;9.57;;;5.20;99.90;;;;;;5083751;28;20047;-87
2020/12/20 00:29:29;;;;;;;18.40;9.60;;;5.10;99.90;;;;;;5088274;28;20020;-87
2020/12/20 00:31:55;;;;;;;17.17;9.63;;;5.10;99.90;;;;;;5083416;28;20032;-87
2020/12/20 00:34:21;;;;;;;17.48;9.63;;;5.20;99.90;;;;;;5072283;28;20029;-87
2020/12/20 00:36:48;;;;;;;18.77;9.88;;;5.20;99.90;;;;;;5076978;28;20024;-87
2020/12/20 00:39:15;;;;;;;16.50;9.30;;;5.20;99.90;;;;;;5059552;28;20064;-88
2020/12/20 00:41:41;;;;;;;17.38;9.98;;;5.20;99.90;;;;;;5058665;28;20035;-87
2020/12/20 00:44:06;;;;;;;16.50;9.50;;;5.20;99.90;;;;;;5054585;28;20033;-87
2020/12/20 00:46:36;;;;;;;13.15;8.80;;;5.20;99.90;;;;;;5056148;28;20025;-87
2020/12/20 00:49:03;;;;;;;17.00;9.25;;;5.20;99.90;;;;;;5072154;28;20047;-87
2020/12/20 00:51:33;;;;;;;19.85;10.07;;;5.20;99.90;;;;;;5064061;28;20497;-88
2020/12/20 00:53:59;;;;;;;17.58;9.82;;;5.30;99.90;;;;;;5063594;28;20639;-88
2020/12/20 00:56:24;;;;;;;17.95;9.88;;;5.20;99.90;;;;;;5052589;28;20032;-87
2020/12/20 00:58:50;;;;;;;15.68;9.40;;;5.30;99.90;;;;;;5063088;28;20024;-87
2020/12/20 01:01:18;;;;;;;15.93;9.27;;;5.30;99.90;;;;;;5057366;28;20030;-86
2020/12/20 01:03:44;;;;;;;17.95;9.30;;;5.20;99.90;;;;;;5056640;28;20029;-87
2020/12/20 01:06:16;;;;;;;15.60;9.05;;;5.20;99.90;;;;;;5056650;28;20298;-87
2020/12/20 01:08:42;;;;;;;19.48;10.00;;;5.30;99.90;;;;;;5059545;28;20031;-87
2020/12/20 01:11:07;;;;;;;16.23;9.25;;;5.20;99.90;;;;;;5054125;28;20029;-87
2020/12/20 01:13:33;;;;;;;18.55;9.43;;;5.20;99.90;;;;;;5067403;28;20033;-87
2020/12/20 01:15:58;;;;;;;16.80;9.50;;;5.20;99.90;;;;;;5067144;28;20037;-86
2020/12/20 01:18:24;;;;;;;17.33;9.48;;;5.10;99.90;;;;;;5071624;28;20059;-86
2020/12/20 01:20:49;;;;;;;18.95;9.30;;;5.10;99.90;;;;;;5074871;28;20025;-88
2020/12/20 01:23:15;;;;;;;16.15;8.93;;;5.10;99.90;;;;;;5079672;28;20070;-87
2020/12/20 01:25:40;;;;;;;17.70;9.60;;;5.00;99.90;;;;;;5060578;28;20025;-87
2020/12/20 01:28:06;;;;;;;18.23;9.27;;;5.10;99.90;;;;;;5059589;28;20499;-87
2020/12/20 01:30:31;;;;;;;17.25;9.40;;;5.00;99.90;;;;;;5079675;28;20029;-87
2020/12/20 01:32:57;;;;;;;17.05;9.43;;;4.90;99.90;;;;;;5067429;28;20068;-87
2020/12/20 01:35:22;;;;;;;17.33;9.70;;;5.00;99.90;;;;;;5068543;28;20033;-87
2020/12/20 01:37:48;;;;;;;18.42;10.07;;;5.00;99.90;;;;;;5070392;28;20032;-87
2020/12/20 01:40:13;;;;;;;18.40;10.00;;;5.00;99.90;;;;;;5081299;28;20036;-85
2020/12/20 01:42:39;;;;;;;17.38;9.70;;;5.00;99.90;;;;;;5067774;28;20054;-87
2020/12/20 01:45:04;;;;;;;15.88;8.57;;;5.00;99.90;;;;;;5071464;28;20067;-87
2020/12/20 01:47:32;;;;;;;18.77;9.50;;;5.00;99.90;;;;;;5073485;28;20041;-87
2020/12/20 01:50:00;;;;;;;17.70;9.55;;;4.90;99.90;;;;;;5063965;28;20060;-88
2020/12/20 01:52:27;;;;;;;18.25;9.75;;;5.00;99.90;;;;;;5065012;28;20028;-88
2020/12/20 01:54:56;;;;;;;16.88;9.68;;;5.00;99.90;;;;;;5070525;28;20028;-87
2020/12/20 01:57:21;;;;;;;16.85;9.23;;;5.00;99.90;;;;;;5064453;28;20025;-87
2020/12/20 01:59:47;;;;;;;18.23;9.63;;;5.10;99.90;;;;;;5073479;28;20712;-87
2020/12/20 02:02:13;;;;;;;18.63;9.75;;;5.10;99.90;;;;;;5076898;28;20455;-87
2020/12/20 02:04:41;;;;;;;17.67;9.65;;;5.10;99.90;;;;;;5061375;28;20094;-87
2020/12/20 02:07:07;;;;;;;17.58;9.82;;;5.00;99.90;;;;;;5067751;28;20550;-88
2020/12/20 02:09:33;;;;;;;17.48;9.40;;;5.10;99.90;;;;;;5065126;28;20044;-88
2020/12/20 02:12:04;;;;;;;14.70;8.93;;;5.10;99.90;;;;;;5071328;28;20028;-88
2020/12/20 02:14:29;;;;;;;18.75;10.63;;;5.10;99.90;;;;;;5077519;28;20021;-88
2020/12/20 02:16:55;;;;;;;21.90;9.80;;;5.10;99.90;;;;;;5053628;28;20082;-87
2020/12/20 02:19:21;;;;;;;17.00;9.85;;;5.00;99.90;;;;;;5058658;28;20055;-86
2020/12/20 02:21:46;;;;;;;18.42;9.38;;;5.00;99.90;;;;;;5069080;28;20034;-86
2020/12/20 02:24:12;;;;;;;17.95;10.30;;;5.00;99.90;;;;;;5059167;28;20040;-86
2020/12/20 02:26:37;;;;;;;17.42;9.60;;;5.00;99.90;;;;;;5064286;28;20046;-86
2020/12/20 02:29:03;;;;;;;16.70;9.77;;;5.00;99.90;;;;;;5067719;28;20020;-87
2020/12/20 02:31:29;;;;;;;18.95;9.68;;;5.00;99.90;;;;;;5074005;28;20079;-87
2020/12/20 02:33:55;;;;;;;19.00;10.48;;;5.10;99.90;;;;;;5070834;28;20021;-87
2020/12/20 02:36:20;;;;;;;16.02;9.40;;;5.10;99.90;;;;;;5067269;28;20036;-87
2020/12/20 02:38:46;;;;;;;17.63;10.77;;;5.10;99.90;;;;;;5075376;28;20028;-87
2020/12/20 02:41:12;;;;;;;17.75;9.95;;;5.00;99.90;;;;;;5069028;28;20029;-88
2020/12/20 02:43:37;;;;;;;18.05;9.93;;;5.00;99.90;;;;;;5065826;28;20036;-87
2020/12/20 02:46:03;;;;;;;16.90;9.63;;;5.00;99.90;;;;;;5060197;28;20506;-87
2020/12/20 02:48:29;;;;;;;19.02;10.45;;;4.90;99.90;;;;;;5054059;28;20067;-88
2020/12/20 02:50:54;;;;;;;17.10;10.43;;;4.90;99.90;;;;;;5080098;28;20040;-87
2020/12/20 02:53:20;;;;;;;18.83;10.32;;;5.00;99.90;;;;;;5069411;28;20040;-87
2020/12/20 02:55:45;;;;;;;18.88;10.65;;;4.90;99.90;;;;;;5063568;28;20538;-87
2020/12/20 02:58:11;;;;;;;18.77;10.10;;;4.90;99.90;;;;;;5059160;28;20028;-86
2020/12/20 03:00:38;;;;;;;18.52;10.13;;;5.00;99.90;;;;;;5072939;28;20033;-86
2020/12/20 03:03:04;;;;;;;17.50;10.07;;;5.00;99.90;;;;;;5077649;28;20023;-86
2020/12/20 03:05:30;;;;;;;19.75;10.93;;;5.10;99.90;;;;;;5087718;28;20009;-88
2020/12/20 03:07:55;;;;;;;19.70;10.88;;;5.10;99.90;;;;;;5069849;28;20021;-87
2020/12/20 03:10:21;;;;;;;20.58;10.65;;;5.10;99.90;;;;;;5072776;28;20103;-87
2020/12/20 03:12:46;;;;;;;18.70;10.25;;;5.00;99.90;;;;;;5064714;28;20040;-87
2020/12/20 03:15:12;;;;;;;19.95;10.82;;;5.10;99.90;;;;;;5078162;28;20033;-87
2020/12/20 03:17:38;;;;;;;17.52;10.05;;;5.10;99.90;;;;;;5073970;28;20067;-87
2020/12/20 03:20:04;;;;;;;16.65;10.23;;;5.10;99.90;;;;;;5067228;28;20028;-87
2020/12/20 03:22:30;;;;;;;19.00;11.05;;;5.10;99.90;;;;;;5060545;28;20454;-86
2020/12/20 03:24:55;;;;;;;22.92;11.68;;;5.00;99.90;;;;;;5067704;28;20060;-87
2020/12/20 03:27:21;;;;;;;18.25;9.98;;;5.00;99.90;;;;;;5073136;28;20021;-87
2020/12/20 03:29:46;;;;;;;19.00;10.07;;;5.10;99.90;;;;;;5062146;28;20304;-87
2020/12/20 03:32:12;;;;;;;20.27;10.65;;;5.10;99.90;;;;;;5066018;28;20049;-87
2020/12/20 03:34:37;;;;;;;23.33;11.73;;;5.00;99.90;;;;;;5070692;28;20409;-87
2020/12/20 03:37:03;;;;;;;19.50;10.18;;;5.00;99.90;;;;;;5057550;28;20479;-86
2020/12/20 03:39:29;;;;;;;18.80;11.13;;;5.00;99.90;;;;;;5059695;28;20028;-87
2020/12/20 03:41:55;;;;;;;21.42;10.85;;;4.90;99.90;;;;;;5053286;28;20052;-87
2020/12/20 03:44:21;;;;;;;19.30;11.18;;;4.90;99.90;;;;;;5065197;28;20490;-87
2020/12/20 03:46:46;;;;;;;18.92;10.60;;;4.90;99.90;;;;;;5065979;28;20685;-86
2020/12/20 03:49:12;;;;;;;19.60;10.85;;;4.90;99.90;;;;;;5076165;28;20027;-87
2020/12/20 03:51:37;;;;;;;17.92;10.23;;;4.90;99.90;;;;;;5064086;28;20666;-87
2020/12/20 03:54:03;;;;;;;20.80;11.57;;;5.00;99.90;;;;;;5073871;28;20053;-87
2020/12/20 03:56:29;;;;;;;23.23;11.65;;;4.90;99.90;;;;;;5054460;28;20037;-87
2020/12/20 03:58:55;;;;;;;20.58;10.98;;;4.90;99.90;;;;;;5066487;28;20036;-86
2020/12/20 04:01:22;;;;;;;20.50;11.05;;;4.90;99.90;;;;;;5072062;28;20046;-87
2020/12/20 04:03:48;;;;;;;20.08;10.77;;;4.90;99.90;;;;;;5057120;28;20028;-86
2020/12/20 04:06:13;;;;;;;21.35;11.32;;;4.90;99.90;;;;;;5056125;28;20029;-86
2020/12/20 04:08:39;;;;;;;19.23;10.63;;;4.90;99.90;;;;;;5056677;28;20078;-86
2020/12/20 04:11:07;;;;;;;19.45;10.07;;;4.90;99.90;;;;;;5060849;28;20032;-87
2020/12/20 04:13:33;;;;;;;20.95;11.18;;;4.90;99.90;;;;;;5051961;28;20029;-86
2020/12/20 04:16:04;;;;;;;21.08;10.75;;;4.90;99.90;;;;;;5058585;28;20745;-87
2020/12/20 04:18:29;;;;;;;19.75;10.35;;;4.90;99.90;;;;;;5054764;28;20052;-87
2020/12/20 04:20:55;;;;;;;18.83;10.63;;;4.90;99.90;;;;;;5062896;28;20501;-87
2020/12/20 04:23:20;;;;;;;20.35;11.40;;;4.90;99.90;;;;;;5063273;28;20039;-87
2020/12/20 04:25:46;;;;;;;20.55;10.68;;;4.90;99.90;;;;;;5055075;28;20020;-87
2020/12/20 04:28:12;;;;;;;21.40;10.57;;;4.80;99.90;;;;;;5058076;28;20029;-87
2020/12/20 04:30:37;;;;;;;17.90;10.20;;;4.80;99.90;;;;;;5058682;28;20051;-86
2020/12/20 04:33:03;;;;;;;20.90;10.90;;;4.80;99.90;;;;;;5062680;28;20475;-86
2020/12/20 04:35:29;;;;;;;19.08;10.80;;;4.70;99.90;;;;;;5056420;28;20025;-87
2020/12/20 04:37:54;;;;;;;21.30;10.38;;;4.70;99.90;;;;;;5050114;28;20060;-86
2020/12/20 04:40:22;;;;;;;20.92;11.57;;;4.70;99.90;;;;;;5058109;28;20037;-86
2020/12/20 04:42:48;;;;;;;20.95;11.07;;;4.60;99.90;;;;;;5060928;28;20101;-86
2020/12/20 04:45:16;;;;;;;19.05;11.05;;;4.60;99.90;;;;;;5066598;28;20491;-87
2020/12/20 04:47:43;;;;;;;19.40;11.27;;;4.60;99.90;;;;;;5049755;28;20674;-87
2020/12/20 04:50:10;;;;;;;20.02;11.13;;;4.60;99.90;;;;;;5050888;28;20075;-86
2020/12/20 04:52:39;;;;;;;18.05;10.45;;;4.60;99.90;;;;;;5059684;28;20017;-87
2020/12/20 04:55:04;;;;;;;22.27;11.75;;;4.50;99.90;;;;;;5048453;28;20067;-87
2020/12/20 04:57:34;;;;;;;21.35;10.93;;;4.50;99.90;;;;;;5055351;28;20570;-87
2020/12/20 05:00:06;;;;;;;19.05;10.88;;;4.50;99.90;;;;;;5059286;28;20066;-87
2020/12/20 05:02:33;;;;;;;22.38;11.82;;;4.40;99.90;;;;;;5052900;28;20056;-86
2020/12/20 05:04:59;;;;;;;22.92;12.00;;;4.50;99.90;;;;;;5047546;28;20021;-86
2020/12/20 05:07:25;;;;;;;21.02;11.55;;;4.50;99.90;;;;;;5064200;28;20025;-86
2020/12/20 05:09:50;;;;;;;18.73;10.63;;;4.50;99.90;;;;;;5058267;28;20047;-87
2020/12/20 05:12:23;;;;;;;23.00;12.45;;;4.50;99.90;;;;;;5064347;28;20032;-88
2020/12/20 05:14:49;;;;;;;20.27;11.55;;;4.50;99.90;;;;;;5066286;28;20390;-87
2020/12/20 05:17:18;;;;;;;20.38;11.38;;;4.60;99.90;;;;;;5052007;28;20025;-87
2020/12/20 05:19:43;;;;;;;23.27;11.90;;;4.60;99.90;;;;;;5054050;28;20067;-88
2020/12/20 05:22:16;;;;;;;22.33;12.18;;;4.60;99.90;;;;;;5066209;28;20104;-89
2020/12/20 05:24:43;;;;;;;21.65;11.63;;;4.60;99.90;;;;;;5052510;28;20056;-87
2020/12/20 05:27:29;;;;;;;23.40;12.38;;;4.60;99.90;;;;;;5054998;28;20044;-87
2020/12/20 05:30:17;;;;;;;22.13;11.75;;;4.60;99.90;;;;;;5058080;28;20101;-88
2020/12/20 05:32:45;;;;;;;22.92;12.15;;;4.60;99.90;;;;;;5063707;28;20103;-88
2020/12/20 05:35:15;;;;;;;22.88;11.65;;;4.60;99.90;;;;;;5058287;28;20035;-86
2020/12/20 05:37:42;;;;;;;20.88;11.80;;;4.60;99.90;;;;;;5060664;28;20402;-87
2020/12/20 05:40:15;;;;;;;20.83;11.80;;;4.50;99.90;;;;;;5071819;28;20017;-88
2020/12/20 05:42:53;;;;;;;19.20;11.55;;;4.50;99.90;;;;;;5061015;28;20082;-87
2020/12/20 05:45:22;;;;;;;21.52;12.02;;;4.50;99.90;;;;;;5050435;28;20037;-86
2020/12/20 05:47:47;;;;;;;19.73;11.50;;;4.40;99.90;;;;;;5059289;28;20036;-87
2020/12/20 05:50:13;;;;;;;21.08;12.25;;;4.40;99.90;;;;;;5070553;28;20021;-87
2020/12/20 05:52:39;;;;;;;20.58;11.57;;;4.40;99.90;;;;;;5068203;28;20051;-88
2020/12/20 05:55:13;;;;;;;23.02;11.57;;;4.40;99.90;;;;;;5086286;28;20025;-89
2020/12/20 05:57:39;;;;;;;22.42;12.23;;;4.40;99.90;;;;;;5076859;28;20031;-88
2020/12/20 06:00:06;;;;;;;18.50;11.45;;;4.40;99.90;;;;;;5071099;28;20029;-89
2020/12/20 06:02:32;;;;;;;21.75;11.57;;;4.40;99.90;;;;;;5068431;28;20495;-87
2020/12/20 06:05:01;;;;;;;24.63;12.38;;;4.40;99.90;;;;;;5065609;28;20017;-88
2020/12/20 06:07:27;;;;;;;24.20;12.75;;;4.30;99.90;;;;;;5067071;28;20052;-88
2020/12/20 06:09:58;;;;;;;23.75;12.38;;;4.30;99.90;;;;;;5056372;28;20071;-88
2020/12/20 06:12:28;;;;;;;23.63;13.10;;;4.20;99.90;;;;;;5062200;28;20386;-88
2020/12/20 06:14:56;;;;;;;23.60;12.38;;;4.20;99.90;;;;;;5056494;28;20131;-88
2020/12/20 06:17:26;;;;;;;20.42;12.05;;;4.20;99.90;;;;;;5063942;28;20036;-85
2020/12/20 06:20:00;;;;;;;24.30;12.98;;;4.30;99.90;;;;;;5066211;28;20040;-90
2020/12/20 06:22:33;;;;;;;21.92;12.30;;;4.20;99.90;;;;;;5060381;28;20036;-90
2020/12/20 06:25:01;;;;;;;22.42;12.07;;;4.20;99.90;;;;;;5062406;28;20029;-90
2020/12/20 06:27:28;;;;;;;21.08;11.90;;;4.20;99.90;;;;;;5057306;28;20020;-84
2020/12/20 06:30:12;;;;;;;23.10;13.15;;;4.10;99.90;;;;;;5051354;28;20111;-87
2020/12/20 06:32:43;;;;;;;24.02;13.07;;;4.10;99.90;;;;;;5056219;28;20025;-87
2020/12/20 06:35:28;;;;;;;22.65;12.40;;;4.10;99.90;;;;;;5058354;28;20024;-85
2020/12/20 06:37:54;;;;;;;23.73;12.20;;;4.10;99.90;;;;;;5052216;28;20025;-86
2020/12/20 06:40:28;;;;;;;23.60;12.70;;;4.00;99.90;;;;;;5066622;28;20071;-80
2020/12/20 06:42:54;;;;;;;24.70;13.32;;;4.00;99.90;;;;;;5056624;28;20033;-87
2020/12/20 06:45:20;;;;;;;24.42;13.45;;;4.00;99.90;;;;;;5050142;28;20483;-87
2020/12/20 06:48:01;;;;;;;24.98;13.30;;;4.00;99.90;;;;;;5061207;28;20702;-86
2020/12/20 06:50:38;;;;;;;25.65;13.85;;;3.90;99.90;;;;;;5052563;28;20033;-87
2020/12/20 06:53:05;;;;;;;24.65;13.43;;;3.90;99.90;;;;;;5062062;28;20051;-89
2020/12/20 06:55:31;;;;;;;22.45;12.73;;;3.90;99.90;;;;;;5055087;28;20031;-83
2020/12/20 06:58:02;;;;;;;23.20;13.05;;;3.90;99.90;;;;;;5063855;28;20025;-87
2020/12/20 07:00:48;;;;;;;25.25;13.57;;;3.90;99.90;;;;;;5051193;28;20029;-86
2020/12/20 07:03:35;;;;;;;26.05;13.75;;;3.90;99.90;;;;;;5057242;28;20490;-87
2020/12/20 07:06:07;;;;;;;26.67;14.02;;;3.90;99.90;;;;;;5067567;28;20024;-86
2020/12/20 07:08:34;;;;;;;22.75;13.50;;;4.00;99.90;;;;;;5056743;28;20083;-88
2020/12/20 07:11:02;;;;;;;31.83;15.05;;;3.90;99.90;;;;;;5067970;28;20484;-89
2020/12/20 07:13:36;;;;;;;28.60;14.65;;;3.90;99.90;;;;;;5063278;28;20032;-88
2020/12/20 07:16:09;;;;;;;32.67;15.13;;;3.90;99.90;;;;;;5052206;28;20102;-82
2020/12/20 07:18:42;;;;;;;31.33;15.00;;;3.90;99.90;;;;;;5053121;28;20037;-89
2020/12/20 07:21:19;;;;;;;28.75;14.48;;;3.90;99.90;;;;;;5068013;28;20032;-88
2020/12/20 07:23:51;;;;;;;28.45;15.30;;;4.00;99.90;;;;;;5050080;28;20039;-88
2020/12/20 07:26:17;;;;;;;29.30;14.82;;;3.90;99.90;;;;;;5046434;28;20074;-89
2020/12/20 07:28:43;;;;;;;29.05;14.32;;;4.00;99.90;;;;;;5043764;28;20037;-87
2020/12/20 07:31:19;;;;;;;25.55;13.85;;;4.00;99.90;;;;;;5046846;28;20191;-88
2020/12/20 07:33:45;;;;;;;28.40;14.40;;;3.90;99.90;;;;;;5062067;28;20074;-88
2020/12/20 07:36:11;;;;;;;26.80;14.32;;;3.80;99.90;;;;;;5050792;28;20041;-88
2020/12/20 07:38:37;;;;;;;26.45;14.30;;;3.90;99.90;;;;;;5055181;28;20489;-88
2020/12/20 07:41:13;;;;;;;27.75;14.18;;;3.90;99.90;;;;;;5052976;28;20124;-87
2020/12/20 07:43:39;;;;;;;28.52;14.63;;;3.90;99.90;;;;;;5055762;28;20478;-83
2020/12/20 07:46:07;;;;;;;27.58;14.60;;;3.90;99.90;;;;;;5049756;28;20086;-84
2020/12/20 07:48:33;;;;;;;28.65;14.40;;;4.00;99.90;;;;;;5053102;28;20430;-85
2020/12/20 07:51:15;;;;;;;28.05;14.68;;;4.00;99.90;;;;;;5056920;28;20025;-84
2020/12/20 07:53:47;;;;;;;31.30;15.88;;;4.00;99.90;;;;;;5053847;28;20029;-85
2020/12/20 07:56:27;;;;;;;29.60;16.00;;;4.10;99.90;;;;;;5058112;28;20040;-86
2020/12/20 07:58:55;;;;;;;27.52;14.85;;;4.10;99.90;;;;;;5049487;28;20075;-85
2020/12/20 08:01:21;;;;;;;31.75;15.43;;;4.10;99.90;;;;;;5044128;28;20041;-85
2020/12/20 08:03:47;;;;;;;33.30;14.98;;;4.10;99.90;;;;;;5043444;28;20021;-85
2020/12/20 08:06:14;;;;;;;28.60;14.85;;;4.10;99.90;;;;;;5039982;28;20078;-85
2020/12/20 08:08:40;;;;;;;29.58;15.02;;;4.10;99.90;;;;;;5046420;28;20028;-85
2020/12/20 08:11:26;;;;;;;29.33;15.05;;;4.10;99.90;;;;;;5039168;28;20017;-85
2020/12/20 08:14:03;;;;;;;30.90;15.27;;;4.10;99.90;;;;;;5041728;28;20044;-84
2020/12/20 08:16:34;;;;;;;33.42;15.82;;;4.20;99.90;;;;;;5045272;28;20112;-85
2020/12/20 08:19:02;;;;;;;26.13;14.48;;;4.20;99.90;;;;;;5040898;28;20041;-85
2020/12/20 08:21:36;;;;;;;33.60;16.48;;;4.30;99.90;;;;;;5049023;28;20028;-85
2020/12/20 08:24:02;;;;;;;28.45;15.05;;;4.30;99.90;;;;;;5050861;28;20036;-85
2020/12/20 08:26:29;;;;;;;28.52;15.75;;;4.30;99.90;;;;;;5049904;28;20048;-86
2020/12/20 08:28:54;;;;;;;28.67;15.50;;;4.30;99.90;;;;;;5054533;28;20031;-85
2020/12/20 08:31:21;;;;;;;29.02;15.05;;;4.30;99.90;;;;;;5046361;28;20123;-87
2020/12/20 08:33:47;;;;;;;28.45;15.25;;;4.30;99.90;;;;;;5046317;28;20021;-86
2020/12/20 08:36:14;;;;;;;32.55;15.32;;;4.30;99.90;;;;;;5044677;28;20178;-87
2020/12/20 08:38:40;;;;;;;30.92;15.38;;;4.30;99.90;;;;;;5047862;28;20025;-88
2020/12/20 08:41:23;;;;;;;27.10;14.18;;;4.30;99.90;;;;;;5050445;28;20029;-86
2020/12/20 08:44:04;;;;;;;29.15;15.35;;;4.30;99.90;;;;;;5056735;28;20039;-87
2020/12/20 08:46:31;;;;;;;28.45;14.98;;;4.30;99.90;;;;;;5052645;28;20449;-87
2020/12/20 08:49:17;;;;;;;26.83;14.05;;;4.40;99.90;;;;;;5050869;28;20070;-79
2020/12/20 08:51:47;;;;;;;28.63;14.02;;;4.30;99.90;;;;;;5048557;28;20017;-84
2020/12/20 08:54:22;;;;;;;28.13;14.75;;;4.30;99.90;;;;;;5050103;28;20046;-88
2020/12/20 08:56:52;;;;;;;27.77;14.27;;;4.40;99.90;;;;;;5054635;28;20036;-88
2020/12/20 08:59:28;;;;;;;27.75;14.55;;;4.40;99.90;;;;;;5051838;28;20490;-86
2020/12/20 09:01:54;;;;;;;29.00;13.73;;;4.40;99.90;;;;;;5058116;28;20036;-87
2020/12/20 09:04:19;;;;;;;27.05;14.63;;;4.40;99.90;;;;;;5051699;28;20025;-87
2020/12/20 09:06:59;;;;;;;27.88;14.30;;;4.50;99.90;;;;;;5058794;28;20028;-77
2020/12/20 09:09:25;;;;;;;28.58;15.32;;;4.50;99.90;;;;;;5057310;28;20032;-79
2020/12/20 09:11:50;;;;;;;26.00;14.25;;;4.60;99.90;;;;;;5060465;28;20482;-76
2020/12/20 09:14:16;;;;;;;24.42;13.68;;;4.70;99.90;;;;;;5049753;28;20274;-78
2020/12/20 09:16:42;;;;;;;27.77;14.50;;;4.80;99.90;;;;;;5048819;28;20099;-79
2020/12/20 09:19:12;;;;;;;26.83;14.63;;;4.90;99.90;;;;;;5049948;28;20043;-79
2020/12/20 09:21:38;;;;;;;29.27;13.95;;;4.90;99.90;;;;;;5046078;28;20054;-77
2020/12/20 09:24:06;;;;;;;20.92;12.07;;;5.00;99.90;;;;;;5052741;28;20106;-78
2020/12/20 09:26:32;;;;;;;27.45;14.48;;;5.00;99.90;;;;;;5049281;28;20043;-79
2020/12/20 09:28:58;;;;;;;31.38;14.68;;;5.00;99.90;;;;;;5051968;28;20032;-78
2020/12/20 09:31:26;;;;;;;26.98;14.10;;;5.20;99.90;;;;;;5052821;28;20033;-77
2020/12/20 09:33:54;;;;;;;29.10;14.25;;;5.30;99.90;;;;;;5054644;28;20108;-79
2020/12/20 09:36:24;;;;;;;25.83;13.27;;;5.30;99.90;;;;;;5060385;28;20029;-85
2020/12/20 09:38:52;;;;;;;33.47;13.52;;;5.30;99.90;;;;;;5055492;28;20119;-82
2020/12/20 09:41:26;;;;;;;24.50;13.18;;;5.40;99.90;;;;;;5045734;28;20441;-82
2020/12/20 09:43:53;;;;;;;22.52;13.07;;;5.50;99.90;;;;;;5055587;28;20035;-82
2020/12/20 09:46:28;;;;;;;27.85;12.95;;;5.60;99.90;;;;;;5053616;28;20105;-85
2020/12/20 09:48:55;;;;;;;25.15;12.43;;;5.60;99.90;;;;;;5057369;28;20465;-85
2020/12/20 09:51:22;;;;;;;26.35;12.75;;;5.70;99.90;;;;;;5053336;28;20058;-87
2020/12/20 09:53:49;;;;;;;21.58;12.15;;;5.80;99.90;;;;;;5047713;28;20024;-87
2020/12/20 09:56:15;;;;;;;24.00;11.80;;;5.90;99.90;;;;;;5048775;28;20060;-87
2020/12/20 09:58:41;;;;;;;22.73;11.93;;;6.00;99.90;;;;;;5048305;28;20029;-87
2020/12/20 10:01:06;;;;;;;22.35;12.43;;;6.10;99.90;;;;;;5049421;28;20523;-87
2020/12/20 10:03:32;;;;;;;27.35;12.27;;;6.30;99.90;;;;;;5061240;28;20028;-87
2020/12/20 10:05:59;;;;;;;23.48;12.40;;;6.40;99.90;;;;;;5067584;28;20115;-85
2020/12/20 10:08:28;;;;;;;22.65;11.77;;;6.30;99.90;;;;;;5051926;28;20467;-87
2020/12/20 10:10:54;;;;;;;26.42;12.35;;;6.50;99.90;;;;;;5054480;28;20113;-87
2020/12/20 10:13:21;;;;;;;21.75;12.20;;;6.50;99.90;;;;;;5052201;28;20048;-78
2020/12/20 10:15:48;;;;;;;24.95;12.55;;;6.70;99.90;;;;;;5052382;28;20112;-80
2020/12/20 10:18:13;;;;;;;19.88;10.93;;;6.80;99.90;;;;;;5055069;28;20096;-78
2020/12/20 10:20:39;;;;;;;20.83;11.07;;;6.90;99.90;;;;;;5056991;28;20495;-78
2020/12/20 10:23:05;;;;;;;19.50;11.00;;;7.00;99.90;;;;;;5065446;28;20024;-78
2020/12/20 10:25:30;;;;;;;23.05;11.55;;;7.10;99.90;;;;;;5056603;28;20029;-78
2020/12/20 10:27:57;;;;;;;19.58;10.98;;;7.10;99.90;;;;;;5047062;28;20109;-78
2020/12/20 10:30:23;;;;;;;20.55;11.85;;;7.20;99.90;;;;;;5044657;28;20104;-78
2020/12/20 10:32:48;;;;;;;26.42;11.25;;;7.30;99.90;;;;;;5040886;28;20059;-79
2020/12/20 10:35:15;;;;;;;21.02;11.15;;;7.40;99.90;;;;;;5042876;28;20053;-78
2020/12/20 10:37:40;;;;;;;20.02;11.25;;;7.40;99.90;;;;;;5041065;28;20036;-78
2020/12/20 10:40:06;;;;;;;21.63;10.90;;;7.50;99.90;;;;;;5040857;28;20013;-78
2020/12/20 10:42:31;;;;;;;19.90;11.00;;;7.40;99.20;;;;;;5057586;28;20154;-78
2020/12/20 10:44:57;;;;;;;18.50;10.60;;;7.50;99.10;;;;;;5046570;28;20387;-78
2020/12/20 10:47:23;;;;;;;20.77;10.27;;;7.60;98.60;;;;;;5044368;28;20026;-78
2020/12/20 10:49:49;;;;;;;18.90;9.55;;;7.70;98.50;;;;;;5054975;28;20024;-78
2020/12/20 10:52:15;;;;;;;18.88;10.43;;;7.80;97.90;;;;;;5065925;28;20021;-78
2020/12/20 10:54:40;;;;;;;16.50;9.65;;;7.70;97.70;;;;;;5050190;28;20382;-78
2020/12/20 10:57:06;;;;;;;20.55;11.23;;;7.70;97.90;;;;;;5045932;28;20032;-78
2020/12/20 10:59:32;;;;;;;16.98;9.63;;;7.90;98.40;;;;;;5044122;28;20021;-78
2020/12/20 11:01:58;;;;;;;18.60;10.05;;;7.90;97.20;;;;;;5046030;28;20036;-78
2020/12/20 11:04:24;;;;;;;17.45;10.43;;;8.10;97.00;;;;;;5045428;28;20029;-77
2020/12/20 11:06:53;;;;;;;17.25;9.63;;;8.20;96.40;;;;;;5045038;28;20022;-78
2020/12/20 11:09:18;;;;;;;14.95;8.90;;;8.20;96.10;;;;;;5045961;28;20506;-78
2020/12/20 11:11:44;;;;;;;16.38;9.02;;;8.40;96.10;;;;;;5040069;28;20145;-78
2020/12/20 11:14:09;;;;;;;18.48;9.50;;;8.40;94.70;;;;;;5040766;28;20503;-78
2020/12/20 11:16:35;;;;;;;17.08;9.85;;;8.50;94.70;;;;;;5041189;28;20108;-78
2020/12/20 11:19:00;;;;;;;17.80;9.25;;;8.50;94.80;;;;;;5060469;28;20044;-78
2020/12/20 11:21:26;;;;;;;16.30;9.57;;;8.50;94.10;;;;;;5060187;28;20098;-78
2020/12/20 11:23:51;;;;;;;16.17;8.65;;;8.40;94.40;;;;;;5061983;28;20090;-78
2020/12/20 11:26:20;;;;;;;14.90;9.32;;;8.50;94.30;;;;;;5041168;28;20029;-76
2020/12/20 11:28:47;;;;;;;16.33;8.70;;;8.50;94.10;;;;;;5041755;28;20639;-78
2020/12/20 11:31:15;;;;;;;22.33;9.00;;;8.40;93.90;;;;;;5043594;28;20037;-78
2020/12/20 11:33:40;;;;;;;17.90;9.52;;;8.50;94.20;;;;;;5045785;28;20025;-78
2020/12/20 11:36:06;;;;;;;14.55;8.55;;;8.60;93.60;;;;;;5045010;28;20320;-78
2020/12/20 11:38:33;;;;;;;16.38;9.30;;;8.50;93.70;;;;;;5043723;28;20479;-78
2020/12/20 11:41:00;;;;;;;16.38;9.35;;;8.70;93.70;;;;;;5058595;28;20033;-78
2020/12/20 11:43:25;;;;;;;15.02;8.35;;;8.70;93.80;;;;;;5063316;28;20032;-79
2020/12/20 11:45:51;;;;;;;16.25;9.02;;;8.60;93.60;;;;;;5063888;28;20024;-78
2020/12/20 11:48:16;;;;;;;16.35;8.85;;;8.50;93.50;;;;;;5044745;28;20311;-78
2020/12/20 11:50:42;;;;;;;15.20;9.27;;;8.40;93.20;;;;;;5043279;28;20032;-78
2020/12/20 11:53:07;;;;;;;15.25;9.18;;;8.30;93.90;;;;;;5044882;28;20459;-78
2020/12/20 11:55:33;;;;;;;15.32;8.93;;;8.10;94.10;;;;;;5043434;28;20032;-78
2020/12/20 11:57:59;;;;;;;15.82;9.00;;;7.80;94.80;;;;;;5042581;28;20032;-78
2020/12/20 12:00:28;;;;;;;14.90;8.75;;;7.80;95.20;;;;;;5039629;28;20032;-78
2020/12/20 12:02:53;;;;;;;15.52;9.18;;;7.80;95.00;;;;;;5039783;28;20433;-78
2020/12/20 12:05:19;;;;;;;15.73;8.90;;;7.80;95.40;;;;;;5041045;28;20025;-78
2020/12/20 12:07:44;;;;;;;17.98;10.13;;;7.70;95.60;;;;;;5039872;28;20021;-78
2020/12/20 12:10:10;;;;;;;14.32;8.77;;;7.60;96.10;;;;;;5038911;28;20044;-79
2020/12/20 12:12:35;;;;;;;17.50;9.85;;;7.50;96.10;;;;;;5039783;28;20032;-78
2020/12/20 12:15:01;;;;;;;16.23;9.48;;;7.40;96.30;;;;;;5053719;28;20053;-78
2020/12/20 12:17:26;;;;;;;16.80;9.02;;;7.50;96.60;;;;;;5062231;28;20502;-78
2020/12/20 12:19:52;;;;;;;14.20;8.88;;;7.60;97.00;;;;;;5064499;28;20044;-78
2020/12/20 12:22:17;;;;;;;16.40;8.82;;;7.50;96.50;;;;;;5062327;28;20047;-78
2020/12/20 12:24:43;;;;;;;14.57;9.25;;;7.50;96.60;;;;;;5058899;28;20032;-78
2020/12/20 12:27:08;;;;;;;15.43;8.85;;;7.40;96.70;;;;;;5045304;28;20434;-78
2020/12/20 12:29:34;;;;;;;16.80;9.80;;;7.70;97.30;;;;;;5062987;28;20035;-78
2020/12/20 12:32:00;;;;;;;19.85;8.88;;;7.80;96.80;;;;;;5063569;28;20025;-78
2020/12/20 12:34:25;;;;;;;16.67;9.38;;;8.20;95.90;;;;;;5062299;28;20144;-78
2020/12/20 12:36:51;;;;;;;14.52;8.48;;;8.50;95.10;;;;;;5050943;28;20534;-78
2020/12/20 12:39:16;;;;;;;16.17;8.60;;;8.40;95.00;;;;;;5046261;28;20454;-78
2020/12/20 12:41:42;;;;;;;14.60;8.77;;;8.20;95.10;;;;;;5042771;28;20025;-78